sensor_id;sensor_type;location;lat;lon;timestamp;temperature;humidity
13482;DHT22;6813;60.352;15.746;2023-03-01T00:01:27;4.40;99.90
13482;DHT22;6813;60.352;15.746;2023-03-01T00:03:54;4.30;99.90
13482;DHT22;6813;60.352;15.746;2023-03-01T00:06:21;4.40;99.90
13482;DHT22;6813;60.352;15.746;2023-03-01T00:08:47;4.30;99.90
13482;DHT22;6813;60.352;15.746;2023-03-01T00:11:18;4.20;99.90
13482;DHT22;6813;60.352;15.746;2023-03-01T00:13:45;4.20;99.90
13482;DHT22;6813;60.352;15.746;2023-03-01T00:16:26;4.10;99.90
13482;DHT22;6813;60.352;15.746;2023-03-01T00:18:54;4.10;99.90
13482;DHT22;6813;60.352;15.746;2023-03-01T00:21:20;4.10;99.90
13482;DHT22;6813;60.352;15.746;2023-03-01T00:23:47;4.10;99.90
13482;DHT22;6813;60.352;15.746;2023-03-01T00:26:15;4.00;99.90
13482;DHT22;6813;60.352;15.746;2023-03-01T00:28:41;4.00;99.90
13482;DHT22;6813;60.352;15.746;2023-03-01T00:31:18;4.00;99.90
13482;DHT22;6813;60.352;15.746;2023-03-01T00:33:44;4.00;99.90
13482;DHT22;6813;60.352;15.746;2023-03-01T00:36:11;4.10;99.90
13482;DHT22;6813;60.352;15.746;2023-03-01T00:38:43;4.20;99.90
13482;DHT22;6813;60.352;15.746;2023-03-01T00:41:13;4.20;99.90
13482;DHT22;6813;60.352;15.746;2023-03-01T00:43:40;4.20;99.90
13482;DHT22;6813;60.352;15.746;2023-03-01T00:46:11;4.30;99.90
13482;DHT22;6813;60.352;15.746;2023-03-01T00:48:37;4.20;99.90
13482;DHT22;6813;60.352;15.746;2023-03-01T00:51:07;4.20;99.90
13482;DHT22;6813;60.352;15.746;2023-03-01T00:53:34;4.10;99.90
13482;DHT22;6813;60.352;15.746;2023-03-01T00:56:00;4.20;99.90
13482;DHT22;6813;60.352;15.746;2023-03-01T00:58:25;4.20;99.90
13482;DHT22;6813;60.352;15.746;2023-03-01T01:00:51;4.10;99.90
13482;DHT22;6813;60.352;15.746;2023-03-01T01:03:20;4.20;99.90
13482;DHT22;6813;60.352;15.746;2023-03-01T01:05:45;4.20;99.90
13482;DHT22;6813;60.352;15.746;2023-03-01T01:08:11;4.10;99.90
13482;DHT22;6813;60.352;15.746;2023-03-01T01:10:37;4.00;99.90
13482;DHT22;6813;60.352;15.746;2023-03-01T01:13:03;4.00;99.90
13482;DHT22;6813;60.352;15.746;2023-03-01T01:15:29;4.10;99.90
13482;DHT22;6813;60.352;15.746;2023-03-01T01:17:58;4.10;99.90
13482;DHT22;6813;60.352;15.746;2023-03-01T01:20:23;4.10;99.90
13482;DHT22;6813;60.352;15.746;2023-03-01T01:22:49;4.10;99.90
13482;DHT22;6813;60.352;15.746;2023-03-01T01:25:16;4.10;99.90
13482;DHT22;6813;60.352;15.746;2023-03-01T01:27:42;4.10;99.90
13482;DHT22;6813;60.352;15.746;2023-03-01T01:30:08;4.00;99.90
13482;DHT22;6813;60.352;15.746;2023-03-01T01:32:34;4.00;99.90
13482;DHT22;6813;60.352;15.746;2023-03-01T01:35:00;4.00;99.90
13482;DHT22;6813;60.352;15.746;2023-03-01T01:37:25;4.00;99.90
13482;DHT22;6813;60.352;15.746;2023-03-01T01:39:57;4.10;99.90
13482;DHT22;6813;60.352;15.746;2023-03-01T01:42:24;4.10;99.90
13482;DHT22;6813;60.352;15.746;2023-03-01T01:47:57;3.90;99.90
13482;DHT22;6813;60.352;15.746;2023-03-01T01:50:24;3.90;99.90
13482;DHT22;6813;60.352;15.746;2023-03-01T01:52:51;4.00;99.90
13482;DHT22;6813;60.352;15.746;2023-03-01T01:55:21;4.10;99.90
13482;DHT22;6813;60.352;15.746;2023-03-01T01:57:52;4.10;99.90
13482;DHT22;6813;60.352;15.746;2023-03-01T02:00:25;4.20;99.90
13482;DHT22;6813;60.352;15.746;2023-03-01T02:05:49;4.20;99.90
13482;DHT22;6813;60.352;15.746;2023-03-01T02:08:19;4.00;99.90
13482;DHT22;6813;60.352;15.746;2023-03-01T02:10:46;4.00;99.90
13482;DHT22;6813;60.352;15.746;2023-03-01T02:13:13;4.10;99.90
13482;DHT22;6813;60.352;15.746;2023-03-01T02:15:40;4.20;99.90
13482;DHT22;6813;60.352;15.746;2023-03-01T02:18:08;4.30;99.90
13482;DHT22;6813;60.352;15.746;2023-03-01T02:23:23;4.20;99.90
13482;DHT22;6813;60.352;15.746;2023-03-01T02:26:18;4.10;99.90
13482;DHT22;6813;60.352;15.746;2023-03-01T02:28:45;4.00;99.90
13482;DHT22;6813;60.352;15.746;2023-03-01T02:31:17;3.90;99.90
13482;DHT22;6813;60.352;15.746;2023-03-01T02:34:03;3.80;99.90
13482;DHT22;6813;60.352;15.746;2023-03-01T02:36:45;3.80;99.90
13482;DHT22;6813;60.352;15.746;2023-03-01T02:39:17;3.80;99.90
13482;DHT22;6813;60.352;15.746;2023-03-01T02:41:47;3.80;99.90
13482;DHT22;6813;60.352;15.746;2023-03-01T02:44:14;3.80;99.90
13482;DHT22;6813;60.352;15.746;2023-03-01T02:46:46;3.90;99.90
13482;DHT22;6813;60.352;15.746;2023-03-01T02:49:28;3.90;99.90
13482;DHT22;6813;60.352;15.746;2023-03-01T02:54:31;3.80;99.90
13482;DHT22;6813;60.352;15.746;2023-03-01T02:56:59;3.80;99.90
13482;DHT22;6813;60.352;15.746;2023-03-01T02:59:30;3.80;99.90
13482;DHT22;6813;60.352;15.746;2023-03-01T03:01:56;3.80;99.90
13482;DHT22;6813;60.352;15.746;2023-03-01T03:04:22;3.80;99.90
13482;DHT22;6813;60.352;15.746;2023-03-01T03:06:52;3.70;99.90
13482;DHT22;6813;60.352;15.746;2023-03-01T03:09:18;3.60;99.90
13482;DHT22;6813;60.352;15.746;2023-03-01T03:11:44;3.50;99.90
13482;DHT22;6813;60.352;15.746;2023-03-01T03:14:12;3.50;99.90
13482;DHT22;6813;60.352;15.746;2023-03-01T03:16:42;3.50;99.90
13482;DHT22;6813;60.352;15.746;2023-03-01T03:19:08;3.40;99.90
13482;DHT22;6813;60.352;15.746;2023-03-01T03:21:35;3.40;99.90
13482;DHT22;6813;60.352;15.746;2023-03-01T03:24:01;3.40;99.90
13482;DHT22;6813;60.352;15.746;2023-03-01T03:26:27;3.30;99.90
13482;DHT22;6813;60.352;15.746;2023-03-01T03:28:52;3.30;99.90
13482;DHT22;6813;60.352;15.746;2023-03-01T03:31:18;3.30;99.90
13482;DHT22;6813;60.352;15.746;2023-03-01T03:33:44;3.30;99.90
13482;DHT22;6813;60.352;15.746;2023-03-01T03:36:15;3.40;99.90
13482;DHT22;6813;60.352;15.746;2023-03-01T03:38:43;3.30;99.90
13482;DHT22;6813;60.352;15.746;2023-03-01T03:41:09;3.30;99.90
13482;DHT22;6813;60.352;15.746;2023-03-01T03:43:37;3.20;99.90
13482;DHT22;6813;60.352;15.746;2023-03-01T03:46:04;3.10;99.90
13482;DHT22;6813;60.352;15.746;2023-03-01T03:48:35;3.10;99.90
13482;DHT22;6813;60.352;15.746;2023-03-01T03:51:02;3.00;99.90
13482;DHT22;6813;60.352;15.746;2023-03-01T03:53:30;3.00;99.90
13482;DHT22;6813;60.352;15.746;2023-03-01T03:55:56;3.10;99.90
13482;DHT22;6813;60.352;15.746;2023-03-01T03:58:24;3.10;99.90
13482;DHT22;6813;60.352;15.746;2023-03-01T04:00:55;3.20;99.90
13482;DHT22;6813;60.352;15.746;2023-03-01T04:03:22;3.20;99.90
13482;DHT22;6813;60.352;15.746;2023-03-01T04:05:49;3.20;99.90
13482;DHT22;6813;60.352;15.746;2023-03-01T04:08:19;3.20;99.90
13482;DHT22;6813;60.352;15.746;2023-03-01T04:10:51;3.20;99.90
13482;DHT22;6813;60.352;15.746;2023-03-01T04:13:20;3.20;99.90
13482;DHT22;6813;60.352;15.746;2023-03-01T04:15:48;3.20;99.90
13482;DHT22;6813;60.352;15.746;2023-03-01T04:18:15;3.10;99.90
13482;DHT22;6813;60.352;15.746;2023-03-01T04:20:42;3.20;99.90
13482;DHT22;6813;60.352;15.746;2023-03-01T04:23:17;3.20;99.90
13482;DHT22;6813;60.352;15.746;2023-03-01T04:25:54;3.10;99.90
13482;DHT22;6813;60.352;15.746;2023-03-01T04:28:25;3.20;99.90
13482;DHT22;6813;60.352;15.746;2023-03-01T04:30:52;3.20;99.90
13482;DHT22;6813;60.352;15.746;2023-03-01T04:33:18;3.20;99.90
13482;DHT22;6813;60.352;15.746;2023-03-01T04:35:44;3.20;99.90
13482;DHT22;6813;60.352;15.746;2023-03-01T04:38:09;3.20;99.90
13482;DHT22;6813;60.352;15.746;2023-03-01T04:40:36;3.20;99.90
13482;DHT22;6813;60.352;15.746;2023-03-01T04:43:03;3.20;99.90
13482;DHT22;6813;60.352;15.746;2023-03-01T04:45:29;3.20;99.90
13482;DHT22;6813;60.352;15.746;2023-03-01T04:47:56;3.10;99.90
13482;DHT22;6813;60.352;15.746;2023-03-01T04:50:23;3.20;99.90
13482;DHT22;6813;60.352;15.746;2023-03-01T04:52:51;3.20;99.90
13482;DHT22;6813;60.352;15.746;2023-03-01T04:55:17;3.10;99.90
13482;DHT22;6813;60.352;15.746;2023-03-01T04:57:43;3.00;99.90
13482;DHT22;6813;60.352;15.746;2023-03-01T05:00:11;2.90;99.90
13482;DHT22;6813;60.352;15.746;2023-03-01T05:02:52;2.90;99.90
13482;DHT22;6813;60.352;15.746;2023-03-01T05:05:27;2.80;99.90
13482;DHT22;6813;60.352;15.746;2023-03-01T05:07:54;2.80;99.90
13482;DHT22;6813;60.352;15.746;2023-03-01T05:10:22;2.90;99.90
13482;DHT22;6813;60.352;15.746;2023-03-01T05:12:48;2.90;99.90
13482;DHT22;6813;60.352;15.746;2023-03-01T05:15:13;2.90;99.90
13482;DHT22;6813;60.352;15.746;2023-03-01T05:17:39;3.00;99.90
13482;DHT22;6813;60.352;15.746;2023-03-01T05:20:05;3.00;99.90
13482;DHT22;6813;60.352;15.746;2023-03-01T05:22:34;3.10;99.90
13482;DHT22;6813;60.352;15.746;2023-03-01T05:25:00;3.10;99.90
13482;DHT22;6813;60.352;15.746;2023-03-01T05:27:25;3.10;99.90
13482;DHT22;6813;60.352;15.746;2023-03-01T05:29:51;3.10;99.90
13482;DHT22;6813;60.352;15.746;2023-03-01T05:32:17;3.10;99.90
13482;DHT22;6813;60.352;15.746;2023-03-01T05:34:43;3.10;99.90
13482;DHT22;6813;60.352;15.746;2023-03-01T05:37:09;3.20;99.90
13482;DHT22;6813;60.352;15.746;2023-03-01T05:39:35;3.10;99.90
13482;DHT22;6813;60.352;15.746;2023-03-01T05:42:01;3.20;99.90
13482;DHT22;6813;60.352;15.746;2023-03-01T05:44:28;3.20;99.90
13482;DHT22;6813;60.352;15.746;2023-03-01T05:46:54;3.10;99.90
13482;DHT22;6813;60.352;15.746;2023-03-01T05:49:20;3.00;99.90
13482;DHT22;6813;60.352;15.746;2023-03-01T05:51:51;3.00;99.90
13482;DHT22;6813;60.352;15.746;2023-03-01T05:54:18;3.00;99.90
13482;DHT22;6813;60.352;15.746;2023-03-01T05:56:44;3.10;99.90
13482;DHT22;6813;60.352;15.746;2023-03-01T05:59:10;3.00;99.90
13482;DHT22;6813;60.352;15.746;2023-03-01T06:01:37;3.00;99.90
13482;DHT22;6813;60.352;15.746;2023-03-01T06:04:03;3.00;99.90
13482;DHT22;6813;60.352;15.746;2023-03-01T06:06:29;3.10;99.90
13482;DHT22;6813;60.352;15.746;2023-03-01T06:08:55;3.10;99.90
13482;DHT22;6813;60.352;15.746;2023-03-01T06:11:21;3.20;99.90
13482;DHT22;6813;60.352;15.746;2023-03-01T06:13:47;3.20;99.90
13482;DHT22;6813;60.352;15.746;2023-03-01T06:16:13;3.40;99.90
13482;DHT22;6813;60.352;15.746;2023-03-01T06:18:40;3.40;99.90
13482;DHT22;6813;60.352;15.746;2023-03-01T06:21:06;3.40;99.90
13482;DHT22;6813;60.352;15.746;2023-03-01T06:23:32;3.40;99.90
13482;DHT22;6813;60.352;15.746;2023-03-01T06:25:58;3.50;99.90
13482;DHT22;6813;60.352;15.746;2023-03-01T06:28:24;3.60;99.90
13482;DHT22;6813;60.352;15.746;2023-03-01T06:30:50;3.60;99.90
13482;DHT22;6813;60.352;15.746;2023-03-01T06:33:17;3.60;99.90
13482;DHT22;6813;60.352;15.746;2023-03-01T06:35:48;3.80;99.90
13482;DHT22;6813;60.352;15.746;2023-03-01T06:38:14;3.80;99.90
13482;DHT22;6813;60.352;15.746;2023-03-01T06:40:40;4.00;99.90
13482;DHT22;6813;60.352;15.746;2023-03-01T06:43:06;4.20;99.90
13482;DHT22;6813;60.352;15.746;2023-03-01T06:45:33;4.40;99.90
13482;DHT22;6813;60.352;15.746;2023-03-01T06:48:06;4.70;99.90
13482;DHT22;6813;60.352;15.746;2023-03-01T06:50:35;4.80;99.90
13482;DHT22;6813;60.352;15.746;2023-03-01T06:53:01;5.00;99.90
13482;DHT22;6813;60.352;15.746;2023-03-01T06:55:27;5.10;99.90
13482;DHT22;6813;60.352;15.746;2023-03-01T06:57:57;5.30;99.90
13482;DHT22;6813;60.352;15.746;2023-03-01T07:00:23;5.50;99.90
13482;DHT22;6813;60.352;15.746;2023-03-01T07:02:49;5.60;99.90
13482;DHT22;6813;60.352;15.746;2023-03-01T07:05:15;5.60;99.90
13482;DHT22;6813;60.352;15.746;2023-03-01T07:07:41;5.70;99.90
13482;DHT22;6813;60.352;15.746;2023-03-01T07:10:07;5.90;99.90
13482;DHT22;6813;60.352;15.746;2023-03-01T07:12:33;6.00;99.90
13482;DHT22;6813;60.352;15.746;2023-03-01T07:14:59;6.20;99.90
13482;DHT22;6813;60.352;15.746;2023-03-01T07:17:24;6.40;99.90
13482;DHT22;6813;60.352;15.746;2023-03-01T07:19:50;6.50;99.50
13482;DHT22;6813;60.352;15.746;2023-03-01T07:22:16;6.70;99.30
13482;DHT22;6813;60.352;15.746;2023-03-01T07:24:42;6.90;99.10
13482;DHT22;6813;60.352;15.746;2023-03-01T07:27:08;7.10;98.70
13482;DHT22;6813;60.352;15.746;2023-03-01T07:29:33;7.40;98.40
13482;DHT22;6813;60.352;15.746;2023-03-01T07:32:02;7.60;98.30
13482;DHT22;6813;60.352;15.746;2023-03-01T07:34:28;7.80;97.80
13482;DHT22;6813;60.352;15.746;2023-03-01T07:36:53;8.00;97.30
13482;DHT22;6813;60.352;15.746;2023-03-01T07:39:19;8.30;97.10
13482;DHT22;6813;60.352;15.746;2023-03-01T07:41:45;8.50;96.80
13482;DHT22;6813;60.352;15.746;2023-03-01T07:44:10;8.60;96.20
13482;DHT22;6813;60.352;15.746;2023-03-01T07:46:36;8.70;96.00
13482;DHT22;6813;60.352;15.746;2023-03-01T07:49:02;8.70;96.00
13482;DHT22;6813;60.352;15.746;2023-03-01T07:51:28;8.70;95.70
13482;DHT22;6813;60.352;15.746;2023-03-01T07:53:53;8.50;95.70
13482;DHT22;6813;60.352;15.746;2023-03-01T07:56:19;8.60;96.00
13482;DHT22;6813;60.352;15.746;2023-03-01T07:58:46;8.70;96.00
13482;DHT22;6813;60.352;15.746;2023-03-01T08:01:15;8.70;95.70
13482;DHT22;6813;60.352;15.746;2023-03-01T08:03:41;8.80;95.40
13482;DHT22;6813;60.352;15.746;2023-03-01T08:06:08;8.70;95.60
13482;DHT22;6813;60.352;15.746;2023-03-01T08:08:34;8.80;95.80
13482;DHT22;6813;60.352;15.746;2023-03-01T08:11:03;8.70;94.70
13482;DHT22;6813;60.352;15.746;2023-03-01T08:13:30;8.60;95.90
13482;DHT22;6813;60.352;15.746;2023-03-01T08:16:07;8.60;95.40
13482;DHT22;6813;60.352;15.746;2023-03-01T08:18:35;8.70;95.60
13482;DHT22;6813;60.352;15.746;2023-03-01T08:21:09;8.60;95.80
13482;DHT22;6813;60.352;15.746;2023-03-01T08:23:35;8.80;95.50
13482;DHT22;6813;60.352;15.746;2023-03-01T08:26:16;8.90;95.60
13482;DHT22;6813;60.352;15.746;2023-03-01T08:28:43;9.10;95.50
13482;DHT22;6813;60.352;15.746;2023-03-01T08:31:25;9.10;95.60
13482;DHT22;6813;60.352;15.746;2023-03-01T08:33:55;9.30;95.30
13482;DHT22;6813;60.352;15.746;2023-03-01T08:36:22;9.20;94.50
13482;DHT22;6813;60.352;15.746;2023-03-01T08:38:49;9.30;95.00
13482;DHT22;6813;60.352;15.746;2023-03-01T08:41:14;9.40;94.60
13482;DHT22;6813;60.352;15.746;2023-03-01T08:43:40;9.50;94.90
13482;DHT22;6813;60.352;15.746;2023-03-01T08:46:06;9.40;94.30
13482;DHT22;6813;60.352;15.746;2023-03-01T08:48:32;9.40;94.20
13482;DHT22;6813;60.352;15.746;2023-03-01T08:51:07;9.50;94.30
13482;DHT22;6813;60.352;15.746;2023-03-01T08:53:33;9.60;94.70
13482;DHT22;6813;60.352;15.746;2023-03-01T08:56:03;9.60;94.50
13482;DHT22;6813;60.352;15.746;2023-03-01T08:58:29;9.70;94.60
13482;DHT22;6813;60.352;15.746;2023-03-01T09:00:55;9.90;94.40
13482;DHT22;6813;60.352;15.746;2023-03-01T09:03:22;9.90;92.90
13482;DHT22;6813;60.352;15.746;2023-03-01T09:05:49;10.00;92.80
13482;DHT22;6813;60.352;15.746;2023-03-01T09:08:19;10.30;93.20
13482;DHT22;6813;60.352;15.746;2023-03-01T09:10:45;10.60;92.70
13482;DHT22;6813;60.352;15.746;2023-03-01T09:13:11;10.80;92.40
13482;DHT22;6813;60.352;15.746;2023-03-01T09:15:37;11.00;92.10
13482;DHT22;6813;60.352;15.746;2023-03-01T09:18:03;11.10;91.70
13482;DHT22;6813;60.352;15.746;2023-03-01T09:20:30;11.10;91.50
13482;DHT22;6813;60.352;15.746;2023-03-01T09:22:57;11.10;91.50
13482;DHT22;6813;60.352;15.746;2023-03-01T09:25:23;11.10;91.20
13482;DHT22;6813;60.352;15.746;2023-03-01T09:27:51;11.00;91.10
13482;DHT22;6813;60.352;15.746;2023-03-01T09:30:17;10.90;90.70
13482;DHT22;6813;60.352;15.746;2023-03-01T09:32:43;10.90;91.20
13482;DHT22;6813;60.352;15.746;2023-03-01T09:35:10;11.00;90.60
13482;DHT22;6813;60.352;15.746;2023-03-01T09:37:37;10.90;90.10
13482;DHT22;6813;60.352;15.746;2023-03-01T09:40:05;10.80;91.00
13482;DHT22;6813;60.352;15.746;2023-03-01T09:42:35;10.60;90.50
13482;DHT22;6813;60.352;15.746;2023-03-01T09:45:05;10.70;90.60
13482;DHT22;6813;60.352;15.746;2023-03-01T09:47:34;10.70;91.30
13482;DHT22;6813;60.352;15.746;2023-03-01T09:50:19;10.70;91.30
13482;DHT22;6813;60.352;15.746;2023-03-01T09:55:39;10.30;90.30
13482;DHT22;6813;60.352;15.746;2023-03-01T10:01:29;10.40;91.30
13482;DHT22;6813;60.352;15.746;2023-03-01T10:06:57;10.30;91.00
13482;DHT22;6813;60.352;15.746;2023-03-01T10:09:25;10.30;91.60
13482;DHT22;6813;60.352;15.746;2023-03-01T10:11:54;10.20;91.60
13482;DHT22;6813;60.352;15.746;2023-03-01T10:20:37;10.00;91.90
13482;DHT22;6813;60.352;15.746;2023-03-01T10:23:08;10.10;91.90
13482;DHT22;6813;60.352;15.746;2023-03-01T10:28:35;10.30;91.70
13482;DHT22;6813;60.352;15.746;2023-03-01T10:31:04;10.20;91.30
13482;DHT22;6813;60.352;15.746;2023-03-01T10:33:37;10.20;92.30
13482;DHT22;6813;60.352;15.746;2023-03-01T10:36:05;10.30;91.90
13482;DHT22;6813;60.352;15.746;2023-03-01T10:38:46;10.40;91.50
13482;DHT22;6813;60.352;15.746;2023-03-01T10:41:12;10.40;91.90
13482;DHT22;6813;60.352;15.746;2023-03-01T10:43:53;10.50;92.00
13482;DHT22;6813;60.352;15.746;2023-03-01T10:46:30;10.60;91.30
13482;DHT22;6813;60.352;15.746;2023-03-01T10:49:21;10.50;91.20
13482;DHT22;6813;60.352;15.746;2023-03-01T10:51:50;10.60;91.60
13482;DHT22;6813;60.352;15.746;2023-03-01T10:54:35;10.50;91.50
13482;DHT22;6813;60.352;15.746;2023-03-01T10:57:04;10.50;92.00
13482;DHT22;6813;60.352;15.746;2023-03-01T10:59:36;10.60;91.90
13482;DHT22;6813;60.352;15.746;2023-03-01T11:04:33;10.70;91.80
13482;DHT22;6813;60.352;15.746;2023-03-01T11:07:00;10.70;92.00
13482;DHT22;6813;60.352;15.746;2023-03-01T11:09:26;10.60;91.50
13482;DHT22;6813;60.352;15.746;2023-03-01T11:12:00;10.60;92.10
13482;DHT22;6813;60.352;15.746;2023-03-01T11:14:36;10.50;91.90
13482;DHT22;6813;60.352;15.746;2023-03-01T11:17:10;10.30;91.00
13482;DHT22;6813;60.352;15.746;2023-03-01T11:19:37;10.30;92.20
13482;DHT22;6813;60.352;15.746;2023-03-01T11:22:07;10.40;91.90
13482;DHT22;6813;60.352;15.746;2023-03-01T11:24:45;10.50;92.40
13482;DHT22;6813;60.352;15.746;2023-03-01T11:27:31;10.40;91.30
13482;DHT22;6813;60.352;15.746;2023-03-01T11:32:29;10.50;92.40
13482;DHT22;6813;60.352;15.746;2023-03-01T11:35:04;10.50;91.50
13482;DHT22;6813;60.352;15.746;2023-03-01T11:40:59;10.20;91.20
13482;DHT22;6813;60.352;15.746;2023-03-01T11:43:33;10.00;91.50
13482;DHT22;6813;60.352;15.746;2023-03-01T11:57:43;10.00;92.50
13482;DHT22;6813;60.352;15.746;2023-03-01T12:03:14;10.20;93.00
13482;DHT22;6813;60.352;15.746;2023-03-01T12:24:48;9.80;94.00
13482;DHT22;6813;60.352;15.746;2023-03-01T12:28:18;9.80;93.90
13482;DHT22;6813;60.352;15.746;2023-03-01T12:38:42;10.30;92.70
13482;DHT22;6813;60.352;15.746;2023-03-01T12:44:23;10.20;92.50
13482;DHT22;6813;60.352;15.746;2023-03-01T12:49:28;9.90;94.10
13482;DHT22;6813;60.352;15.746;2023-03-01T12:54:36;10.00;93.70
13482;DHT22;6813;60.352;15.746;2023-03-01T13:03:12;9.80;94.30
13482;DHT22;6813;60.352;15.746;2023-03-01T13:08:20;9.90;93.50
13482;DHT22;6813;60.352;15.746;2023-03-01T13:10:58;10.00;93.30
13482;DHT22;6813;60.352;15.746;2023-03-01T13:13:27;9.80;93.10
13482;DHT22;6813;60.352;15.746;2023-03-01T13:15:54;9.70;92.80
13482;DHT22;6813;60.352;15.746;2023-03-01T13:20:50;9.60;93.40
13482;DHT22;6813;60.352;15.746;2023-03-01T13:26:05;9.60;93.60
13482;DHT22;6813;60.352;15.746;2023-03-01T13:33:47;9.70;94.10
13482;DHT22;6813;60.352;15.746;2023-03-01T13:46:53;9.80;94.30
13482;DHT22;6813;60.352;15.746;2023-03-01T13:49:23;9.80;93.70
13482;DHT22;6813;60.352;15.746;2023-03-01T13:51:51;9.70;93.60
13482;DHT22;6813;60.352;15.746;2023-03-01T13:54:30;9.70;94.10
13482;DHT22;6813;60.352;15.746;2023-03-01T13:56:59;9.60;94.40
13482;DHT22;6813;60.352;15.746;2023-03-01T13:59:26;9.50;94.20
13482;DHT22;6813;60.352;15.746;2023-03-01T14:01:59;9.40;93.80
13482;DHT22;6813;60.352;15.746;2023-03-01T14:04:31;9.30;94.10
13482;DHT22;6813;60.352;15.746;2023-03-01T14:07:11;9.20;94.10
13482;DHT22;6813;60.352;15.746;2023-03-01T14:09:43;9.30;94.80
13482;DHT22;6813;60.352;15.746;2023-03-01T14:15:19;9.30;94.70
13482;DHT22;6813;60.352;15.746;2023-03-01T14:18:04;9.30;94.10
13482;DHT22;6813;60.352;15.746;2023-03-01T14:20:39;9.30;94.20
13482;DHT22;6813;60.352;15.746;2023-03-01T14:23:15;9.30;94.30
13482;DHT22;6813;60.352;15.746;2023-03-01T14:25:54;9.30;95.00
13482;DHT22;6813;60.352;15.746;2023-03-01T14:28:28;9.40;95.20
13482;DHT22;6813;60.352;15.746;2023-03-01T14:30:59;9.40;95.50
13482;DHT22;6813;60.352;15.746;2023-03-01T14:33:33;9.40;94.00
13482;DHT22;6813;60.352;15.746;2023-03-01T14:36:11;9.20;94.40
13482;DHT22;6813;60.352;15.746;2023-03-01T14:38:39;9.20;94.80
13482;DHT22;6813;60.352;15.746;2023-03-01T14:41:10;9.10;94.30
13482;DHT22;6813;60.352;15.746;2023-03-01T14:43:41;8.90;94.80
13482;DHT22;6813;60.352;15.746;2023-03-01T14:46:21;8.90;95.30
13482;DHT22;6813;60.352;15.746;2023-03-01T14:48:54;8.90;94.40
13482;DHT22;6813;60.352;15.746;2023-03-01T14:51:22;9.00;94.50
13482;DHT22;6813;60.352;15.746;2023-03-01T14:53:48;8.90;94.40
13482;DHT22;6813;60.352;15.746;2023-03-01T14:56:16;8.80;94.40
13482;DHT22;6813;60.352;15.746;2023-03-01T14:58:45;8.80;94.40
13482;DHT22;6813;60.352;15.746;2023-03-01T15:01:17;8.90;95.40
13482;DHT22;6813;60.352;15.746;2023-03-01T15:03:48;9.00;95.40
13482;DHT22;6813;60.352;15.746;2023-03-01T15:06:22;8.90;94.30
13482;DHT22;6813;60.352;15.746;2023-03-01T15:08:50;8.90;94.50
13482;DHT22;6813;60.352;15.746;2023-03-01T15:13:42;8.80;94.10
13482;DHT22;6813;60.352;15.746;2023-03-01T15:18:38;8.90;94.60
13482;DHT22;6813;60.352;15.746;2023-03-01T15:21:22;9.00;95.00
13482;DHT22;6813;60.352;15.746;2023-03-01T15:24:06;8.90;94.90
13482;DHT22;6813;60.352;15.746;2023-03-01T15:26:58;8.80;94.10
13482;DHT22;6813;60.352;15.746;2023-03-01T15:29:29;8.80;94.90
13482;DHT22;6813;60.352;15.746;2023-03-01T15:32:02;8.80;94.50
13482;DHT22;6813;60.352;15.746;2023-03-01T15:34:36;8.90;94.80
13482;DHT22;6813;60.352;15.746;2023-03-01T15:37:06;8.90;94.80
13482;DHT22;6813;60.352;15.746;2023-03-01T15:39:56;9.10;95.90
13482;DHT22;6813;60.352;15.746;2023-03-01T15:45:11;9.20;94.30
13482;DHT22;6813;60.352;15.746;2023-03-01T15:47:56;9.10;94.10
13482;DHT22;6813;60.352;15.746;2023-03-01T15:50:25;8.90;94.40
13482;DHT22;6813;60.352;15.746;2023-03-01T15:52:51;8.80;95.00
13482;DHT22;6813;60.352;15.746;2023-03-01T15:55:31;8.80;95.40
13482;DHT22;6813;60.352;15.746;2023-03-01T15:58:24;8.80;95.00
13482;DHT22;6813;60.352;15.746;2023-03-01T16:00:51;8.80;95.00
13482;DHT22;6813;60.352;15.746;2023-03-01T16:03:22;8.70;94.90
13482;DHT22;6813;60.352;15.746;2023-03-01T16:05:48;8.80;95.90
13482;DHT22;6813;60.352;15.746;2023-03-01T16:08:15;9.10;97.20
13482;DHT22;6813;60.352;15.746;2023-03-01T16:10:41;9.20;96.70
13482;DHT22;6813;60.352;15.746;2023-03-01T16:13:14;9.10;95.10
13482;DHT22;6813;60.352;15.746;2023-03-01T16:15:40;9.20;95.10
13482;DHT22;6813;60.352;15.746;2023-03-01T16:18:06;9.10;94.50
13482;DHT22;6813;60.352;15.746;2023-03-01T16:20:33;9.00;94.50
13482;DHT22;6813;60.352;15.746;2023-03-01T16:23:05;8.90;95.20
13482;DHT22;6813;60.352;15.746;2023-03-01T16:25:33;8.80;95.40
13482;DHT22;6813;60.352;15.746;2023-03-01T16:28:00;8.70;94.90
13482;DHT22;6813;60.352;15.746;2023-03-01T16:30:30;8.60;95.30
13482;DHT22;6813;60.352;15.746;2023-03-01T16:32:56;8.50;94.90
13482;DHT22;6813;60.352;15.746;2023-03-01T16:35:22;8.70;96.90
13482;DHT22;6813;60.352;15.746;2023-03-01T16:37:49;8.70;96.00
13482;DHT22;6813;60.352;15.746;2023-03-01T16:40:23;8.50;94.70
13482;DHT22;6813;60.352;15.746;2023-03-01T16:42:49;8.50;95.10
13482;DHT22;6813;60.352;15.746;2023-03-01T16:45:16;8.40;95.30
13482;DHT22;6813;60.352;15.746;2023-03-01T16:47:41;8.40;95.80
13482;DHT22;6813;60.352;15.746;2023-03-01T16:50:08;8.40;95.30
13482;DHT22;6813;60.352;15.746;2023-03-01T16:52:34;8.40;96.00
13482;DHT22;6813;60.352;15.746;2023-03-01T16:55:01;8.40;95.40
13482;DHT22;6813;60.352;15.746;2023-03-01T16:57:27;8.40;96.00
13482;DHT22;6813;60.352;15.746;2023-03-01T16:59:52;8.50;96.20
13482;DHT22;6813;60.352;15.746;2023-03-01T17:02:19;8.50;96.30
13482;DHT22;6813;60.352;15.746;2023-03-01T17:04:51;8.50;95.80
13482;DHT22;6813;60.352;15.746;2023-03-01T17:07:19;8.40;95.50
13482;DHT22;6813;60.352;15.746;2023-03-01T17:09:44;8.30;95.50
13482;DHT22;6813;60.352;15.746;2023-03-01T17:12:12;8.20;95.80
13482;DHT22;6813;60.352;15.746;2023-03-01T17:14:38;8.20;95.80
13482;DHT22;6813;60.352;15.746;2023-03-01T17:17:10;8.10;96.50
13482;DHT22;6813;60.352;15.746;2023-03-01T17:19:36;8.10;96.60
13482;DHT22;6813;60.352;15.746;2023-03-01T17:22:10;8.00;95.90
13482;DHT22;6813;60.352;15.746;2023-03-01T17:24:37;8.10;96.20
13482;DHT22;6813;60.352;15.746;2023-03-01T17:27:03;8.20;97.70
13482;DHT22;6813;60.352;15.746;2023-03-01T17:29:30;8.20;96.70
13482;DHT22;6813;60.352;15.746;2023-03-01T17:31:56;8.20;96.80
13482;DHT22;6813;60.352;15.746;2023-03-01T17:34:22;8.20;96.80
13482;DHT22;6813;60.352;15.746;2023-03-01T17:36:49;8.10;97.20
13482;DHT22;6813;60.352;15.746;2023-03-01T17:39:17;8.10;97.50
13482;DHT22;6813;60.352;15.746;2023-03-01T17:41:45;8.20;96.70
13482;DHT22;6813;60.352;15.746;2023-03-01T17:44:10;8.10;96.50
13482;DHT22;6813;60.352;15.746;2023-03-01T17:46:36;8.00;96.70
13482;DHT22;6813;60.352;15.746;2023-03-01T17:49:02;8.00;97.00
13482;DHT22;6813;60.352;15.746;2023-03-01T17:51:28;8.00;97.10
13482;DHT22;6813;60.352;15.746;2023-03-01T17:53:54;7.90;96.90
13482;DHT22;6813;60.352;15.746;2023-03-01T17:56:20;8.00;97.30
13482;DHT22;6813;60.352;15.746;2023-03-01T17:58:46;8.00;96.90
13482;DHT22;6813;60.352;15.746;2023-03-01T18:01:14;7.90;96.70
13482;DHT22;6813;60.352;15.746;2023-03-01T18:03:40;7.80;97.40
13482;DHT22;6813;60.352;15.746;2023-03-01T18:06:20;7.90;97.40